Pagrindinis puslapis
METAR-TAF:

METAR-TAF

Oro uostai :

Jendouba, Tunisas

platuma: 36-29N, ilguma: 008-48E, Aukštis: 143 m

Dabartinis oras

Ataskaita buvo paskelbta 1 valandą ir 9 minutes, ne 17:00 UTC
Vėjas 8 kt iš Šiaurės Vakarų, svyruoja nuo Vakarų/Pietvakarių ir Šiaurės
Temperatūra 18°C
Drėgmė 68%
Slėgis 1020 hPa
Matomumas 10 km arba daugiau
Išsisklaidę debesys ne aukštis 2000 ft

METAR: DTTN 121700Z 31008KT 250V360 9999 SCT020 18/12 Q1020

Laikas: 19:09 (18:09 UTC)


TAF: trūkstamas

Orai ataskaitas ir orų prognozės (METAR, TAF).

turimą stotys yra geltonos ir raudonos taškus žemėlapyje.

Perkelti pele per norėdami pamatyti stoties vardą.

Tada spustelėkite, norėdami matyti oro stebėjimo ir prognozės.

Norėdami pakeisti žemėlapį: spustelėkite ant žalios mygtukų su juodo kryžiaus žemyn,; žalią mygtuką su brūkšneliu, jei norite nutolinti; arba žalių rodyklių gretimoms žemėlapius.


METAR-TAF: